Hanoi, Vietnam
Current Conditions -  °F | °C
As of 5:30 AM on Wednesday 28 Jan 2015 (Local Time) from VVNB Reporting Station
Broken Clouds Broken Clouds  
Wind Chill: 68°   Ceiling: 13000
Heat Index: 68°   Visibility: 3mi
Dew Point: 64°   Wind: 8mph
Humidity: 88%   Direction: 120°ESE
Pressure: 29.91"   Gusts: NA
Location:  21.02°N, 105.85°E
Report Text: VVNB 272230Z 12007KT 5000 SCT009 BKN130 20/18 Q1013 NOSIG
Loading
Personal Weather Stations






























Interactive Weather Map New forecast layout! Learn more

10-Day Weather Forecast

Advertisements
Track Severe Weather on mobile